aviador You're here:

KHDO Decoded Metar

HONDO in TX, USA
Report Time2018-05-27 00:51:00
UTC Time2018-05-27 01:01:34
Flight Rules vfr VFR
Wind100° at 06 kt
W.Decomp.*RWY 08: 5.9 kt HW 1.2 kt RCW
RWY 13: 4.7 kt HW 3.7 kt LCW
RWY 17: 1.2 kt HW 5.9 kt LCW
W.Rank100° ranks 12
Current wind is below 100° avg. (6.5)
Visibility9999 m
Phenomena:N/A
Clouds:N/A
Expected CloudBase > 5,600 ft AGL from Temp-Dew spread
CeilingNone
Temp34°C (ISA +21)
Dew Point20°C (44% RH)
Heat Index36.5°C
QNH1007 hPa
Density Alt3,802 ft
Elevation925 ft
Report Wrong Elevation
Raw Report
KHDO 270051Z AUTO 10006KT 10SM CLR 34/20 A2975 RMK AO2 SLP057
T03390200=

Extra information for KHDO:More info

Metar Taf Metar & Taf Last 4 Metars F.Rules Stats Wind Profile Meteogram Temp Stats Airport Information Weather charts Add Link Nearby VenuesMetar ALERT Operation Metar Decoded Social comments

AIRNAV info for KHDO